createdAt,value
2022-08-17T00:00:35.030Z,24.04
2022-08-17T00:03:11.667Z,24.01
2022-08-17T00:05:48.971Z,23.98
2022-08-17T00:08:18.737Z,23.95
2022-08-17T00:10:47.089Z,23.97
2022-08-17T00:13:36.547Z,23.91
2022-08-17T00:16:08.610Z,23.89
2022-08-17T00:19:00.918Z,23.90
2022-08-17T00:21:25.327Z,23.88
2022-08-17T00:23:54.514Z,23.87
2022-08-17T00:26:34.526Z,23.85
2022-08-17T00:29:19.411Z,23.87
2022-08-17T00:31:48.529Z,23.86
2022-08-17T00:34:16.131Z,23.83
2022-08-17T00:36:43.274Z,23.77
2022-08-17T00:39:10.684Z,23.81
2022-08-17T00:41:42.101Z,23.76
2022-08-17T00:44:09.890Z,23.80
2022-08-17T00:46:41.096Z,23.74
2022-08-17T00:49:09.950Z,23.73
2022-08-17T00:51:44.062Z,23.65
2022-08-17T00:54:21.879Z,23.64
2022-08-17T00:57:06.099Z,23.64
2022-08-17T00:59:41.183Z,23.64
2022-08-17T01:02:12.757Z,23.63
2022-08-17T01:04:40.285Z,23.55
2022-08-17T01:07:08.031Z,23.49
2022-08-17T01:09:35.891Z,23.54
2022-08-17T01:12:06.747Z,23.54
2022-08-17T01:14:36.998Z,23.51
2022-08-17T01:17:05.045Z,23.45
2022-08-17T01:19:37.196Z,23.21
2022-08-17T01:22:14.370Z,23.21
2022-08-17T01:24:48.633Z,23.11
2022-08-17T01:27:18.554Z,23.07
2022-08-17T01:29:53.182Z,23.14
2022-08-17T01:32:20.546Z,23.17
2022-08-17T01:34:50.578Z,23.18
2022-08-17T01:37:20.976Z,23.09
2022-08-17T01:39:52.669Z,22.99
2022-08-17T01:42:37.955Z,22.91
2022-08-17T01:45:11.422Z,22.85
2022-08-17T01:47:38.757Z,22.78
2022-08-17T01:50:15.985Z,22.77
2022-08-17T01:52:50.998Z,22.59
2022-08-17T01:55:27.121Z,22.70
2022-08-17T01:57:54.721Z,22.72
2022-08-17T02:00:22.324Z,22.75
2022-08-17T02:02:49.577Z,22.72
2022-08-17T02:05:17.261Z,22.77
2022-08-17T02:08:00.086Z,22.77
2022-08-17T02:10:34.046Z,22.48
2022-08-17T02:13:03.398Z,22.60
2022-08-17T02:15:31.112Z,22.53
2022-08-17T02:17:58.252Z,22.61
2022-08-17T02:20:41.171Z,22.60
2022-08-17T02:23:12.418Z,22.43
2022-08-17T02:25:43.485Z,22.59
2022-08-17T02:28:11.004Z,22.58
2022-08-17T02:30:59.195Z,22.53
2022-08-17T02:33:43.239Z,22.57
2022-08-17T02:36:12.914Z,22.66
2022-08-17T02:38:41.328Z,22.81
2022-08-17T02:41:09.320Z,22.71
2022-08-17T02:43:36.875Z,22.70
2022-08-17T02:46:03.983Z,22.68
2022-08-17T02:48:32.018Z,22.66
2022-08-17T02:51:00.951Z,22.55
2022-08-17T02:53:29.773Z,22.47
2022-08-17T02:56:04.099Z,22.54
2022-08-17T02:58:35.377Z,22.47
2022-08-17T03:01:08.881Z,22.47
2022-08-17T03:03:37.723Z,22.47
2022-08-17T03:06:05.927Z,22.50
2022-08-17T03:08:34.957Z,22.58
2022-08-17T03:11:02.224Z,22.66
2022-08-17T03:13:30.935Z,22.66
2022-08-17T03:15:59.037Z,22.61
2022-08-17T03:18:28.150Z,22.52
2022-08-17T03:20:59.034Z,22.37
2022-08-17T03:23:27.535Z,22.33
2022-08-17T03:25:58.018Z,22.29
2022-08-17T03:28:26.143Z,22.28
2022-08-17T03:30:53.812Z,22.27
2022-08-17T03:33:22.005Z,22.22
2022-08-17T03:35:50.153Z,22.22
2022-08-17T03:38:18.178Z,22.24
2022-08-17T03:40:56.237Z,22.19
2022-08-17T03:43:29.640Z,22.15
2022-08-17T03:46:33.829Z,22.17
2022-08-17T03:49:25.841Z,22.10
2022-08-17T03:52:17.031Z,22.07
2022-08-17T03:55:04.097Z,22.12
2022-08-17T03:57:32.614Z,22.17
2022-08-17T04:00:00.250Z,22.14
2022-08-17T04:02:31.976Z,22.06
2022-08-17T04:04:59.783Z,22.13
2022-08-17T04:07:29.345Z,22.16
2022-08-17T04:09:58.147Z,22.20
2022-08-17T04:12:31.317Z,22.25
2022-08-17T04:14:59.562Z,22.27
2022-08-17T04:17:29.186Z,22.34
2022-08-17T04:19:56.902Z,22.37
2022-08-17T04:22:33.040Z,22.46
2022-08-17T04:25:13.912Z,22.46
2022-08-17T04:27:41.433Z,22.45
2022-08-17T04:30:09.354Z,22.49
2022-08-17T04:33:08.865Z,22.56
2022-08-17T04:35:40.218Z,22.69
2022-08-17T04:38:10.063Z,22.74
2022-08-17T04:40:56.234Z,22.79
2022-08-17T04:43:25.758Z,22.79
2022-08-17T04:46:04.841Z,22.88
2022-08-17T04:48:37.395Z,23.05
2022-08-17T04:51:10.069Z,23.10
2022-08-17T04:53:39.453Z,23.22
2022-08-17T04:56:07.393Z,23.27
2022-08-17T04:58:39.323Z,23.38
2022-08-17T05:01:07.467Z,23.44
2022-08-17T05:03:35.013Z,23.51
2022-08-17T05:06:02.109Z,23.63
2022-08-17T05:08:29.705Z,23.71
2022-08-17T05:10:57.127Z,23.72
2022-08-17T05:13:27.358Z,23.77
2022-08-17T05:15:58.021Z,23.73
2022-08-17T05:18:26.398Z,23.93
2022-08-17T05:20:54.454Z,24.07
2022-08-17T05:23:24.631Z,24.13
2022-08-17T05:25:57.190Z,24.33
2022-08-17T05:28:28.047Z,24.47
2022-08-17T05:31:00.283Z,24.51
2022-08-17T05:33:31.575Z,24.63
2022-08-17T05:35:59.392Z,24.60
2022-08-17T05:38:29.561Z,24.80
2022-08-17T05:40:58.445Z,24.84
2022-08-17T05:43:31.619Z,24.82
2022-08-17T05:46:13.751Z,25.02
2022-08-17T05:48:47.324Z,25.09
2022-08-17T05:51:35.027Z,25.20
2022-08-17T05:54:23.373Z,25.34
2022-08-17T05:57:08.950Z,25.43
2022-08-17T06:00:08.375Z,25.60
2022-08-17T06:02:47.736Z,25.74
2022-08-17T06:05:41.689Z,25.79
2022-08-17T06:08:17.774Z,25.97
2022-08-17T06:11:00.314Z,26.07
2022-08-17T06:13:58.360Z,26.18
2022-08-17T06:16:34.315Z,26.23
2022-08-17T06:19:39.486Z,26.35
2022-08-17T06:22:10.834Z,26.40
2022-08-17T06:24:57.225Z,26.43
2022-08-17T06:27:54.054Z,26.57
2022-08-17T06:30:28.605Z,26.70
2022-08-17T06:33:22.276Z,26.76
2022-08-17T06:36:17.654Z,26.85
2022-08-17T06:39:18.684Z,26.93
2022-08-17T06:41:59.324Z,26.93
2022-08-17T06:44:51.603Z,27.04
2022-08-17T06:47:36.797Z,27.23
2022-08-17T06:50:15.725Z,27.25
2022-08-17T06:53:05.319Z,27.44
2022-08-17T06:55:41.148Z,27.47
2022-08-17T06:58:15.802Z,27.60
2022-08-17T07:00:47.778Z,27.73
2022-08-17T07:03:37.997Z,27.76
2022-08-17T07:06:08.534Z,27.85
2022-08-17T07:08:50.717Z,27.98
2022-08-17T07:11:36.471Z,28.02
2022-08-17T07:14:23.929Z,28.19
2022-08-17T07:16:54.270Z,28.21
2022-08-17T07:19:25.689Z,28.20
2022-08-17T07:22:00.477Z,28.21
2022-08-17T07:24:57.347Z,28.33
2022-08-17T07:27:37.423Z,28.16
2022-08-17T07:30:12.298Z,28.51
2022-08-17T07:32:47.930Z,28.52
2022-08-17T07:35:34.410Z,28.61
2022-08-17T07:38:24.800Z,28.56
2022-08-17T07:40:57.922Z,28.65
2022-08-17T07:43:29.565Z,28.69
2022-08-17T07:46:36.682Z,28.83
2022-08-17T07:49:03.874Z,28.91
2022-08-17T07:51:35.584Z,28.97
2022-08-17T07:54:25.041Z,28.78
2022-08-17T07:56:53.812Z,28.98
2022-08-17T07:59:23.666Z,29.05
2022-08-17T08:01:58.229Z,29.07
2022-08-17T08:05:00.089Z,29.19
2022-08-17T08:07:21.553Z,29.28
2022-08-17T08:10:16.935Z,29.24
2022-08-17T08:12:47.048Z,29.25
2022-08-17T08:15:15.086Z,29.38
2022-08-17T08:17:59.414Z,29.40
2022-08-17T08:20:51.821Z,29.38
2022-08-17T08:23:42.871Z,29.56
2022-08-17T08:26:40.740Z,29.67
2022-08-17T08:29:19.333Z,29.71
2022-08-17T08:32:21.115Z,29.75
2022-08-17T08:35:03.619Z,29.61
2022-08-17T08:38:13.337Z,29.74
2022-08-17T08:41:02.505Z,29.72
2022-08-17T08:44:15.066Z,29.84
2022-08-17T08:46:54.495Z,30.03
2022-08-17T08:50:03.821Z,30.08
2022-08-17T08:53:19.011Z,30.16
2022-08-17T08:55:54.969Z,30.29
2022-08-17T08:58:31.582Z,30.37
2022-08-17T09:01:28.332Z,30.24
2022-08-17T09:04:25.459Z,30.44
2022-08-17T09:07:11.392Z,30.41
2022-08-17T09:10:00.544Z,30.50
2022-08-17T09:12:27.667Z,30.62
2022-08-17T09:15:02.033Z,30.69
2022-08-17T09:17:46.391Z,30.64
2022-08-17T09:20:29.259Z,30.72
2022-08-17T09:23:04.057Z,30.72
2022-08-17T09:25:35.371Z,30.40
2022-08-17T09:28:06.684Z,30.67
2022-08-17T09:31:24.210Z,30.85
2022-08-17T09:33:51.779Z,30.85
2022-08-17T09:36:45.320Z,30.92
2022-08-17T09:39:24.888Z,30.97
2022-08-17T09:42:22.920Z,30.99
2022-08-17T09:45:08.565Z,31.11
2022-08-17T09:47:46.870Z,31.17
2022-08-17T09:51:03.388Z,31.16
2022-08-17T09:53:16.154Z,31.27
2022-08-17T09:55:47.673Z,31.22
2022-08-17T09:58:50.926Z,31.26
2022-08-17T10:01:35.635Z,31.32
2022-08-17T10:04:11.237Z,31.40
2022-08-17T10:06:58.790Z,31.35
2022-08-17T10:09:37.965Z,31.36
2022-08-17T10:12:47.174Z,31.46
2022-08-17T10:15:37.196Z,31.60
2022-08-17T10:18:42.087Z,31.59
2022-08-17T10:21:34.123Z,31.66
2022-08-17T10:24:31.670Z,31.74
2022-08-17T10:27:01.696Z,31.92
2022-08-17T10:29:49.169Z,31.99
2022-08-17T10:32:27.892Z,32.09
2022-08-17T10:35:17.760Z,32.06
2022-08-17T10:37:51.106Z,32.15
2022-08-17T10:40:22.487Z,31.87
2022-08-17T10:42:56.985Z,31.88
2022-08-17T10:46:26.826Z,31.98
2022-08-17T10:49:22.758Z,32.14
2022-08-17T10:51:56.411Z,32.25
2022-08-17T10:54:45.591Z,32.18
2022-08-17T10:57:34.057Z,32.13
2022-08-17T11:00:17.309Z,32.26
2022-08-17T11:02:50.449Z,32.37
2022-08-17T11:05:31.817Z,32.59
2022-08-17T11:08:12.060Z,32.61
2022-08-17T11:10:58.132Z,32.61
2022-08-17T11:13:31.621Z,32.54
2022-08-17T11:16:37.796Z,32.55
2022-08-17T11:19:14.151Z,32.60
2022-08-17T11:22:12.023Z,32.62
2022-08-17T11:24:45.542Z,32.43
2022-08-17T11:27:26.914Z,32.63
2022-08-17T11:30:02.667Z,32.65
2022-08-17T11:32:37.899Z,32.85
2022-08-17T11:35:20.793Z,32.94
2022-08-17T11:38:16.249Z,33.04
2022-08-17T11:41:05.332Z,32.85
2022-08-17T11:43:59.235Z,32.77
2022-08-17T11:48:08.944Z,32.89
2022-08-17T11:51:28.787Z,33.04
2022-08-17T11:54:33.712Z,33.11
2022-08-17T11:57:42.898Z,33.30
2022-08-17T12:00:41.459Z,33.49
2022-08-17T12:03:32.285Z,33.48
2022-08-17T12:06:30.419Z,33.60
2022-08-17T12:09:22.347Z,33.67
2022-08-17T12:12:12.007Z,33.72
2022-08-17T12:15:09.562Z,33.81
2022-08-17T12:17:41.586Z,33.60
2022-08-17T12:21:00.905Z,33.60
2022-08-17T12:23:41.601Z,33.58
2022-08-17T12:26:21.185Z,33.35
2022-08-17T12:28:53.838Z,33.27
2022-08-17T12:31:26.036Z,33.35
2022-08-17T12:33:53.448Z,33.54
2022-08-17T12:36:26.724Z,33.69
2022-08-17T12:39:14.878Z,33.78
2022-08-17T12:41:52.046Z,33.82
2022-08-17T12:44:50.824Z,33.99
2022-08-17T12:47:22.413Z,34.03
2022-08-17T12:50:00.293Z,34.09
2022-08-17T12:52:32.994Z,33.96
2022-08-17T12:55:11.294Z,33.93
2022-08-17T12:57:38.661Z,34.06
2022-08-17T13:00:21.075Z,34.10
2022-08-17T13:03:00.358Z,34.25
2022-08-17T13:05:27.794Z,34.11
2022-08-17T13:08:00.540Z,33.89
2022-08-17T13:10:35.073Z,33.90
2022-08-17T13:13:19.596Z,33.93
2022-08-17T13:16:17.219Z,33.76
2022-08-17T13:19:06.558Z,33.88
2022-08-17T13:21:45.091Z,33.80
2022-08-17T13:24:20.206Z,33.88
2022-08-17T13:26:49.805Z,34.02
2022-08-17T13:29:34.941Z,33.91
2022-08-17T13:32:13.012Z,33.83
2022-08-17T13:35:11.912Z,33.76
2022-08-17T13:38:01.484Z,33.59
2022-08-17T13:40:36.002Z,33.55
2022-08-17T13:43:04.439Z,33.67
2022-08-17T13:45:39.500Z,33.73
2022-08-17T13:48:14.686Z,33.79
2022-08-17T13:50:56.954Z,33.84
2022-08-17T13:53:33.393Z,33.86
2022-08-17T13:56:38.902Z,33.88
2022-08-17T13:59:13.802Z,33.99
2022-08-17T14:01:53.741Z,34.04
2022-08-17T14:04:32.665Z,34.18
2022-08-17T14:07:13.291Z,34.22
2022-08-17T14:10:19.991Z,34.19
2022-08-17T14:12:47.965Z,34.24
2022-08-17T14:15:17.243Z,34.28
2022-08-17T14:17:44.530Z,34.20
2022-08-17T14:20:13.409Z,34.29
2022-08-17T14:22:45.589Z,34.17
2022-08-17T14:25:15.674Z,34.11
2022-08-17T14:27:52.685Z,34.19
2022-08-17T14:30:23.823Z,33.99
2022-08-17T14:32:53.334Z,33.85
2022-08-17T14:35:23.058Z,33.78
2022-08-17T14:37:51.391Z,33.71
2022-08-17T14:40:21.532Z,33.68
2022-08-17T14:42:53.857Z,33.58
2022-08-17T14:45:30.155Z,33.45
2022-08-17T14:48:08.684Z,33.37
2022-08-17T14:50:39.135Z,33.16
2022-08-17T14:53:09.129Z,33.13
2022-08-17T14:55:40.113Z,33.08
2022-08-17T14:58:11.448Z,32.99
2022-08-17T15:00:41.286Z,32.86
2022-08-17T15:03:08.695Z,32.89
2022-08-17T15:05:37.956Z,32.99
2022-08-17T15:08:06.194Z,33.06
2022-08-17T15:10:34.770Z,33.25
2022-08-17T15:13:02.231Z,33.41
2022-08-17T15:15:31.252Z,33.47
2022-08-17T15:18:00.058Z,33.55
2022-08-17T15:20:29.703Z,33.61
2022-08-17T15:22:59.051Z,33.48
2022-08-17T15:25:29.877Z,33.61
2022-08-17T15:27:58.223Z,33.63
2022-08-17T15:30:26.869Z,33.63
2022-08-17T15:32:55.453Z,33.70
2022-08-17T15:35:28.119Z,33.75
2022-08-17T15:38:10.536Z,33.73
2022-08-17T15:40:48.488Z,33.55
2022-08-17T15:43:28.574Z,33.41
2022-08-17T15:46:18.749Z,33.27
2022-08-17T15:48:49.864Z,33.35
2022-08-17T15:51:22.618Z,33.38
2022-08-17T15:54:04.499Z,33.20
2022-08-17T15:56:47.121Z,33.24
2022-08-17T15:59:14.517Z,33.17
2022-08-17T16:03:01.359Z,33.10
2022-08-17T16:04:30.929Z,32.98
2022-08-17T16:07:00.334Z,32.90
2022-08-17T16:09:27.829Z,32.71
2022-08-17T16:11:56.269Z,32.57
2022-08-17T16:14:30.301Z,32.39
2022-08-17T16:17:04.076Z,32.16
2022-08-17T16:19:32.574Z,32.00
2022-08-17T16:22:00.857Z,31.85
2022-08-17T16:24:28.385Z,31.72
2022-08-17T16:26:55.736Z,31.45
2022-08-17T16:29:23.175Z,31.34
2022-08-17T16:31:51.538Z,31.18
2022-08-17T16:34:19.070Z,30.97
2022-08-17T16:36:55.287Z,30.86
2022-08-17T16:39:29.453Z,30.68
2022-08-17T16:41:57.802Z,30.59
2022-08-17T16:44:27.572Z,30.49
2022-08-17T16:46:54.916Z,30.36
2022-08-17T16:49:35.556Z,30.27
2022-08-17T16:52:10.406Z,30.12
2022-08-17T16:54:44.018Z,30.07
2022-08-17T16:57:18.468Z,29.95
2022-08-17T16:59:50.272Z,29.87
2022-08-17T17:02:36.568Z,29.75
2022-08-17T17:05:11.805Z,29.70
2022-08-17T17:08:00.991Z,29.58
2022-08-17T17:10:44.745Z,29.48
2022-08-17T17:13:40.643Z,29.40
2022-08-17T17:16:40.427Z,29.28
2022-08-17T17:19:34.211Z,29.34
2022-08-17T17:22:20.799Z,29.28
2022-08-17T17:25:21.405Z,29.38
2022-08-17T17:28:14.857Z,29.45
2022-08-17T17:30:48.427Z,29.50
2022-08-17T17:33:24.851Z,29.50
2022-08-17T17:36:00.283Z,29.49
2022-08-17T17:38:43.258Z,29.52
2022-08-17T17:41:26.353Z,29.54
2022-08-17T17:44:02.831Z,29.54
2022-08-17T17:46:40.375Z,29.47
2022-08-17T17:49:10.678Z,29.46
2022-08-17T17:52:10.055Z,29.33
2022-08-17T17:54:56.040Z,29.31
2022-08-17T17:57:55.989Z,29.26
2022-08-17T18:00:45.054Z,29.20
2022-08-17T18:03:54.026Z,29.19
2022-08-17T18:06:33.419Z,29.14
2022-08-17T18:09:33.792Z,29.10
2022-08-17T18:12:19.873Z,29.06
2022-08-17T18:15:21.545Z,28.96
2022-08-17T18:18:17.204Z,28.97
2022-08-17T18:20:55.927Z,28.93
2022-08-17T18:23:27.898Z,28.91
2022-08-17T18:25:56.760Z,28.85
2022-08-17T18:28:34.987Z,28.77
2022-08-17T18:31:14.410Z,28.74
2022-08-17T18:33:44.398Z,28.66
2022-08-17T18:36:12.774Z,28.54
2022-08-17T18:38:43.136Z,28.50
2022-08-17T18:41:21.164Z,28.46
2022-08-17T18:44:29.283Z,28.33
2022-08-17T18:47:22.695Z,28.26
2022-08-17T18:49:57.600Z,28.21
2022-08-17T18:52:30.672Z,28.11
2022-08-17T18:55:15.302Z,28.06
2022-08-17T18:57:59.847Z,27.96
2022-08-17T19:00:29.902Z,27.94
2022-08-17T19:03:18.019Z,27.62
2022-08-17T19:05:55.568Z,27.78
2022-08-17T19:08:29.139Z,27.70
2022-08-17T19:11:17.148Z,27.66
2022-08-17T19:13:51.789Z,27.64
2022-08-17T19:16:34.111Z,27.59
2022-08-17T19:19:14.452Z,27.53
2022-08-17T19:21:47.022Z,27.47
2022-08-17T19:24:21.980Z,27.41
2022-08-17T19:26:59.832Z,27.33
2022-08-17T19:29:34.264Z,27.32
2022-08-17T19:32:02.031Z,27.22
2022-08-17T19:34:34.793Z,27.09
2022-08-17T19:37:29.953Z,27.06
2022-08-17T19:40:08.798Z,26.94
2022-08-17T19:43:06.424Z,26.97
2022-08-17T19:45:39.806Z,26.89
2022-08-17T19:48:07.200Z,26.87
2022-08-17T19:51:04.097Z,26.80
2022-08-17T19:54:06.877Z,26.75
2022-08-17T19:56:40.849Z,26.72
2022-08-17T19:59:16.878Z,26.68
2022-08-17T20:02:30.290Z,26.57
2022-08-17T20:05:03.162Z,26.51
2022-08-17T20:07:43.801Z,26.51
2022-08-17T20:10:28.827Z,26.50
2022-08-17T20:13:03.115Z,26.40
2022-08-17T20:15:37.172Z,26.39
2022-08-17T20:18:15.393Z,26.31
2022-08-17T20:20:51.722Z,26.27
2022-08-17T20:23:29.198Z,26.22
2022-08-17T20:26:19.051Z,26.23
2022-08-17T20:29:14.421Z,26.16
2022-08-17T20:31:50.563Z,26.04
2022-08-17T20:34:33.590Z,26.03
2022-08-17T20:37:14.682Z,26.04
2022-08-17T20:39:44.857Z,26.09
2022-08-17T20:42:21.214Z,26.00
2022-08-17T20:44:55.675Z,25.85
2022-08-17T20:48:27.241Z,25.81
2022-08-17T20:50:56.112Z,25.74
2022-08-17T20:54:07.056Z,25.72
2022-08-17T20:56:43.672Z,25.73
2022-08-17T20:59:26.833Z,25.70
2022-08-17T21:02:17.663Z,25.53
2022-08-17T21:04:56.412Z,25.44
2022-08-17T21:07:48.435Z,25.27
2022-08-17T21:10:29.410Z,25.29
2022-08-17T21:13:16.205Z,25.34
2022-08-17T21:15:58.991Z,25.38
2022-08-17T21:18:47.731Z,25.28
2022-08-17T21:21:24.292Z,25.17
2022-08-17T21:24:16.699Z,25.05
2022-08-17T21:27:00.371Z,24.83
2022-08-17T21:29:33.811Z,24.75
2022-08-17T21:32:05.504Z,24.78
2022-08-17T21:34:38.004Z,24.71
2022-08-17T21:37:21.906Z,24.69
2022-08-17T21:39:58.131Z,24.66
2022-08-17T21:42:29.882Z,24.65
2022-08-17T21:45:08.622Z,24.65
2022-08-17T21:47:43.508Z,24.59
2022-08-17T21:50:21.610Z,24.55
2022-08-17T21:52:54.211Z,24.55
2022-08-17T21:55:28.346Z,24.52
2022-08-17T21:58:14.326Z,24.48
2022-08-17T22:00:44.770Z,24.38
2022-08-17T22:03:24.313Z,24.37
2022-08-17T22:05:51.734Z,24.40
2022-08-17T22:08:21.927Z,24.40
2022-08-17T22:10:51.441Z,24.37
2022-08-17T22:13:18.573Z,24.40
2022-08-17T22:16:15.730Z,23.96
2022-08-17T22:18:58.215Z,24.18
2022-08-17T22:21:26.202Z,24.23
2022-08-17T22:24:06.079Z,24.23
2022-08-17T22:27:13.022Z,24.22
2022-08-17T22:29:57.413Z,24.15
2022-08-17T22:32:37.474Z,24.22
2022-08-17T22:35:26.585Z,24.20
2022-08-17T22:37:53.951Z,24.17
2022-08-17T22:40:39.386Z,24.11
2022-08-17T22:43:11.790Z,24.08
2022-08-17T22:45:51.643Z,24.06
2022-08-17T22:48:27.379Z,23.92
2022-08-17T22:51:12.882Z,23.97
2022-08-17T22:54:09.255Z,23.86
2022-08-17T22:56:55.901Z,23.94
2022-08-17T22:59:40.571Z,23.88
2022-08-17T23:02:17.285Z,23.92
2022-08-17T23:04:49.119Z,23.98
2022-08-17T23:07:17.558Z,23.95
2022-08-17T23:09:45.443Z,23.92
2022-08-17T23:12:17.880Z,23.84
2022-08-17T23:14:51.562Z,23.87
2022-08-17T23:17:19.047Z,23.83
2022-08-17T23:19:46.415Z,23.79
2022-08-17T23:22:13.637Z,23.72
2022-08-17T23:24:49.118Z,23.63
2022-08-17T23:27:19.336Z,23.67
2022-08-17T23:29:48.725Z,23.64
2022-08-17T23:32:18.542Z,23.66
2022-08-17T23:34:47.808Z,23.63
2022-08-17T23:37:16.299Z,23.56
2022-08-17T23:39:46.651Z,23.58
2022-08-17T23:42:22.035Z,23.36
2022-08-17T23:44:49.422Z,23.48
2022-08-17T23:47:16.535Z,23.43
2022-08-17T23:49:43.757Z,23.33
2022-08-17T23:52:15.222Z,23.28
2022-08-17T23:54:46.795Z,23.30
2022-08-17T23:57:17.736Z,23.22
2022-08-17T23:59:45.093Z,23.12
